createdAt,value
2023-01-04T00:00:19.774Z,4.50
2023-01-04T00:03:06.348Z,3.50
2023-01-04T00:05:54.707Z,4.57
2023-01-04T00:08:41.445Z,1.97
2023-01-04T00:11:27.917Z,2.40
2023-01-04T00:14:17.279Z,3.17
2023-01-04T00:17:04.106Z,3.27
2023-01-04T00:19:50.538Z,1.43
2023-01-04T00:22:38.704Z,2.83
2023-01-04T00:25:25.539Z,3.00
2023-01-04T00:28:12.031Z,2.57
2023-01-04T00:31:02.637Z,1.33
2023-01-04T00:33:49.300Z,1.10
2023-01-04T00:36:36.218Z,2.07
2023-01-04T00:39:24.112Z,1.77
2023-01-04T00:42:10.743Z,1.80
2023-01-04T00:44:57.181Z,3.80
2023-01-04T00:47:43.648Z,2.77
2023-01-04T00:50:29.915Z,2.67
2023-01-04T00:53:17.642Z,2.20
2023-01-04T00:56:05.738Z,2.73
2023-01-04T00:58:55.812Z,0.97
2023-01-04T01:01:43.128Z,2.37
2023-01-04T01:04:29.753Z,2.20
2023-01-04T01:07:16.404Z,2.70
2023-01-04T01:10:02.676Z,1.70
2023-01-04T01:12:50.439Z,1.33
2023-01-04T01:15:37.245Z,2.70
2023-01-04T01:18:23.914Z,3.00
2023-01-04T01:21:12.446Z,2.07
2023-01-04T01:23:59.547Z,1.30
2023-01-04T01:26:46.711Z,2.93
2023-01-04T01:29:34.779Z,1.40
2023-01-04T01:32:21.321Z,3.53
2023-01-04T01:35:08.365Z,4.33
2023-01-04T01:37:54.662Z,2.87
2023-01-04T01:40:42.556Z,1.27
2023-01-04T01:43:48.545Z,4.23
2023-01-04T01:46:40.915Z,1.77
2023-01-04T01:49:32.013Z,2.70
2023-01-04T01:52:22.652Z,2.27
2023-01-04T01:55:11.430Z,2.43
2023-01-04T01:57:59.649Z,1.17
2023-01-04T02:00:46.116Z,1.53
2023-01-04T02:03:38.161Z,1.37
2023-01-04T02:06:30.549Z,1.97
2023-01-04T02:09:18.882Z,3.70
2023-01-04T02:12:05.646Z,2.53
2023-01-04T02:14:52.163Z,2.80
2023-01-04T02:17:47.381Z,4.63
2023-01-04T02:20:47.891Z,3.63
2023-01-04T02:24:08.288Z,2.70
2023-01-04T02:27:27.063Z,3.07
2023-01-04T02:30:48.248Z,2.13
2023-01-04T02:33:44.722Z,2.63
2023-01-04T02:36:37.703Z,1.03
2023-01-04T02:39:34.790Z,1.70
2023-01-04T02:42:46.573Z,2.17
2023-01-04T02:45:40.430Z,3.30
2023-01-04T02:48:44.382Z,6.60
2023-01-04T02:51:34.435Z,2.20
2023-01-04T02:54:27.228Z,1.20
2023-01-04T02:57:26.287Z,2.67
2023-01-04T03:00:59.979Z,5.60
2023-01-04T03:04:18.565Z,2.67
2023-01-04T03:07:14.074Z,2.23
2023-01-04T03:10:08.593Z,1.30
2023-01-04T03:13:00.212Z,1.10
2023-01-04T03:15:52.420Z,1.80
2023-01-04T03:18:45.617Z,1.43
2023-01-04T03:21:34.253Z,2.60
2023-01-04T03:24:41.832Z,1.33
2023-01-04T03:27:46.252Z,1.80
2023-01-04T03:31:02.330Z,2.73
2023-01-04T03:34:05.670Z,4.83
2023-01-04T03:37:08.959Z,2.80
2023-01-04T03:40:35.341Z,3.10
2023-01-04T03:43:42.328Z,2.57
2023-01-04T03:46:51.525Z,3.13
2023-01-04T03:49:42.001Z,1.10
2023-01-04T03:52:31.275Z,3.30
2023-01-04T03:55:19.845Z,4.53
2023-01-04T03:58:06.957Z,4.37
2023-01-04T04:00:53.816Z,1.87
2023-01-04T04:03:58.092Z,3.93
2023-01-04T04:07:01.957Z,1.27
2023-01-04T04:09:48.546Z,1.67
2023-01-04T04:12:36.359Z,1.77
2023-01-04T04:15:23.099Z,2.73
2023-01-04T04:18:09.645Z,2.97
2023-01-04T04:20:59.053Z,1.47
2023-01-04T04:23:45.729Z,2.90
2023-01-04T04:26:32.465Z,2.73
2023-01-04T04:29:20.109Z,3.37
2023-01-04T04:32:06.946Z,0.77
2023-01-04T04:34:53.534Z,1.80
2023-01-04T04:37:40.021Z,1.10
2023-01-04T04:40:43.776Z,2.40
2023-01-04T04:43:30.390Z,1.23
2023-01-04T04:46:18.402Z,1.57
2023-01-04T04:49:05.881Z,2.00
2023-01-04T04:51:52.522Z,2.47
2023-01-04T04:54:39.036Z,2.30
2023-01-04T04:57:25.358Z,0.77
2023-01-04T05:00:13.238Z,1.37
2023-01-04T05:03:02.243Z,1.60
2023-01-04T05:05:49.281Z,1.20
2023-01-04T05:08:35.950Z,1.50
2023-01-04T05:11:42.777Z,1.57
2023-01-04T05:14:28.410Z,1.30
2023-01-04T05:17:14.820Z,1.20
2023-01-04T05:20:02.462Z,3.70
2023-01-04T05:22:49.260Z,1.27
2023-01-04T05:25:36.006Z,1.73
2023-01-04T05:28:22.432Z,3.17
2023-01-04T05:31:07.973Z,1.23
2023-01-04T05:33:54.382Z,2.27
2023-01-04T05:36:42.002Z,2.03
2023-01-04T05:39:28.363Z,1.03
2023-01-04T05:42:26.594Z,3.00
2023-01-04T05:45:14.405Z,1.50
2023-01-04T05:48:01.093Z,1.57
2023-01-04T05:50:47.818Z,2.87
2023-01-04T05:53:35.526Z,2.50
2023-01-04T05:56:22.090Z,1.13
2023-01-04T05:59:08.423Z,1.80
2023-01-04T06:01:55.031Z,1.30
2023-01-04T06:04:41.842Z,0.63
2023-01-04T06:07:28.636Z,0.70
2023-01-04T06:10:17.001Z,1.03
2023-01-04T06:13:03.607Z,1.87
2023-01-04T06:15:50.034Z,1.97
2023-01-04T06:18:36.342Z,1.87
2023-01-04T06:21:22.858Z,0.93
2023-01-04T06:24:11.089Z,1.23
2023-01-04T06:26:59.396Z,1.90
2023-01-04T06:29:46.205Z,0.83
2023-01-04T06:32:32.618Z,0.80
2023-01-04T06:35:18.972Z,2.30
2023-01-04T06:38:05.368Z,1.00
2023-01-04T06:40:51.978Z,1.03
2023-01-04T06:43:39.650Z,1.77
2023-01-04T06:46:26.684Z,0.90
2023-01-04T06:49:14.440Z,2.20
2023-01-04T06:52:00.927Z,0.83
2023-01-04T06:54:47.336Z,1.87
2023-01-04T06:57:34.107Z,1.77
2023-01-04T07:00:22.316Z,0.80
2023-01-04T07:03:14.144Z,2.30
2023-01-04T07:06:06.088Z,0.90
2023-01-04T07:08:52.508Z,1.67
2023-01-04T07:11:38.836Z,3.43
2023-01-04T07:14:25.112Z,1.00
2023-01-04T07:17:12.808Z,0.90
2023-01-04T07:19:59.333Z,1.90
2023-01-04T07:22:45.710Z,1.20
2023-01-04T07:25:32.287Z,1.20
2023-01-04T07:28:38.980Z,1.87
2023-01-04T07:31:25.728Z,2.60
2023-01-04T07:34:14.173Z,1.30
2023-01-04T07:37:00.345Z,1.00
2023-01-04T07:39:48.562Z,1.97
2023-01-04T07:42:35.370Z,2.53
2023-01-04T07:45:21.645Z,1.07
2023-01-04T07:48:08.201Z,1.47
2023-01-04T07:50:56.090Z,1.47
2023-01-04T07:53:42.297Z,6.47
2023-01-04T07:56:28.600Z,4.70
2023-01-04T07:59:19.005Z,1.17
2023-01-04T08:02:05.534Z,1.10
2023-01-04T08:04:52.324Z,0.97
2023-01-04T08:07:40.536Z,2.30
2023-01-04T08:10:26.985Z,1.10
2023-01-04T08:13:13.899Z,1.37
2023-01-04T08:16:00.605Z,1.00
2023-01-04T08:18:47.434Z,0.87
2023-01-04T08:21:35.869Z,1.73
2023-01-04T08:24:23.544Z,0.80
2023-01-04T08:27:11.173Z,0.87
2023-01-04T08:29:57.780Z,0.90
2023-01-04T08:32:44.123Z,1.67
2023-01-04T08:35:30.586Z,1.73
2023-01-04T08:38:57.560Z,1.07
2023-01-04T08:41:56.011Z,0.97
2023-01-04T08:44:34.530Z,1.70
2023-01-04T08:47:21.154Z,0.70
2023-01-04T08:50:10.828Z,1.30
2023-01-04T08:52:57.788Z,0.70
2023-01-04T08:55:51.116Z,1.03
2023-01-04T08:58:39.718Z,1.27
2023-01-04T09:01:26.402Z,0.90
2023-01-04T09:04:13.337Z,1.10
2023-01-04T09:07:00.071Z,3.23
2023-01-04T09:09:46.392Z,1.10
2023-01-04T09:12:32.788Z,1.00
2023-01-04T09:15:21.173Z,1.00
2023-01-04T09:21:17.241Z,1.33
2023-01-04T09:24:03.921Z,1.23
2023-01-04T09:26:50.832Z,1.13
2023-01-04T09:29:37.494Z,1.43
2023-01-04T09:32:25.291Z,1.00
2023-01-04T09:35:12.330Z,1.10
2023-01-04T09:37:58.910Z,1.07
2023-01-04T09:40:54.789Z,1.10
2023-01-04T09:43:47.905Z,1.03
2023-01-04T09:46:40.110Z,0.93
2023-01-04T09:49:31.756Z,0.90
2023-01-04T09:52:23.452Z,2.40
2023-01-04T09:55:39.254Z,1.73
2023-01-04T09:58:27.977Z,2.27
2023-01-04T10:01:18.425Z,1.10
2023-01-04T10:04:14.236Z,0.80
2023-01-04T10:07:05.128Z,0.80
2023-01-04T10:09:51.865Z,0.70
2023-01-04T10:12:49.254Z,0.70
2023-01-04T10:15:40.686Z,0.70
2023-01-04T10:19:52.158Z,1.60
2023-01-04T10:21:48.576Z,0.50
2023-01-04T10:24:46.969Z,0.67
2023-01-04T10:27:42.671Z,0.30
2023-01-04T10:30:36.276Z,0.77
2023-01-04T10:33:29.251Z,0.60
2023-01-04T10:36:20.276Z,0.63
2023-01-04T10:39:13.486Z,0.80
2023-01-04T10:42:08.154Z,0.63
2023-01-04T10:45:09.129Z,4.07
2023-01-04T10:48:03.572Z,0.67
2023-01-04T10:50:56.418Z,0.60
2023-01-04T10:53:48.565Z,1.47
2023-01-04T10:56:38.611Z,0.50
2023-01-04T10:59:35.015Z,0.93
2023-01-04T11:02:27.539Z,0.50
2023-01-04T11:05:21.073Z,0.70
2023-01-04T11:08:12.763Z,0.77
2023-01-04T11:11:05.203Z,0.70
2023-01-04T11:13:51.805Z,1.70
2023-01-04T11:16:41.725Z,0.70
2023-01-04T11:19:29.577Z,0.60
2023-01-04T11:22:21.125Z,0.87
2023-01-04T11:28:24.902Z,0.90
2023-01-04T11:31:22.271Z,0.83
2023-01-04T11:34:10.303Z,0.80
2023-01-04T11:36:56.954Z,0.53
2023-01-04T11:39:43.434Z,0.83
2023-01-04T11:42:29.891Z,0.60
2023-01-04T11:45:22.052Z,0.80
2023-01-04T11:48:16.313Z,0.67
2023-01-04T11:51:05.272Z,0.70
2023-01-04T11:53:59.463Z,0.70
2023-01-04T11:57:01.616Z,0.60
2023-01-04T12:00:09.561Z,1.03
2023-01-04T12:03:12.986Z,0.70
2023-01-04T12:06:00.147Z,0.70
2023-01-04T12:08:49.360Z,0.73
2023-01-04T12:11:38.585Z,0.93
2023-01-04T12:14:26.888Z,0.80
2023-01-04T12:17:17.555Z,1.10
2023-01-04T12:20:16.502Z,1.10
2023-01-04T12:23:05.607Z,1.33
2023-01-04T12:25:54.759Z,1.10
2023-01-04T12:28:44.206Z,1.20
2023-01-04T12:31:33.715Z,2.17
2023-01-04T12:34:39.976Z,1.60
2023-01-04T12:37:49.586Z,1.60
2023-01-04T12:40:56.632Z,1.57
2023-01-04T12:43:47.066Z,1.63
2023-01-04T12:46:58.594Z,1.80
2023-01-04T12:49:51.829Z,2.10
2023-01-04T12:53:10.169Z,2.13
2023-01-04T12:55:57.176Z,1.93
2023-01-04T12:59:26.264Z,2.37
2023-01-04T13:02:23.011Z,2.50
2023-01-04T13:05:55.481Z,2.47
2023-01-04T13:08:42.419Z,2.33
2023-01-04T13:12:02.176Z,2.37
2023-01-04T13:14:51.233Z,2.03
2023-01-04T13:17:40.654Z,2.33
2023-01-04T13:20:29.015Z,2.13
2023-01-04T13:23:15.604Z,2.07
2023-01-04T13:26:40.340Z,2.30
2023-01-04T13:29:30.544Z,2.57
2023-01-04T13:32:23.825Z,2.43
2023-01-04T13:35:14.867Z,2.60
2023-01-04T13:38:02.394Z,2.20
2023-01-04T13:40:49.786Z,2.20
2023-01-04T13:43:54.235Z,2.33
2023-01-04T13:46:44.677Z,2.70
2023-01-04T13:49:31.859Z,2.73
2023-01-04T13:52:50.591Z,2.47
2023-01-04T13:55:32.057Z,2.40
2023-01-04T13:58:20.447Z,4.90
2023-01-04T14:01:09.119Z,2.50
2023-01-04T14:03:59.878Z,3.30
2023-01-04T14:06:49.523Z,2.20
2023-01-04T14:09:44.497Z,2.40
2023-01-04T14:12:31.025Z,2.27
2023-01-04T14:15:22.260Z,2.30
2023-01-04T14:18:27.739Z,2.70
2023-01-04T14:21:19.960Z,2.00
2023-01-04T14:27:42.564Z,2.13
2023-01-04T14:30:29.508Z,1.90
2023-01-04T14:33:18.565Z,2.33
2023-01-04T14:36:12.078Z,5.07
2023-01-04T14:39:18.726Z,3.67
2023-01-04T14:42:06.179Z,3.70
2023-01-04T14:44:53.011Z,3.00
2023-01-04T14:47:39.373Z,3.53
2023-01-04T14:50:25.843Z,4.70
2023-01-04T14:53:17.580Z,4.97
2023-01-04T14:56:05.692Z,3.73
2023-01-04T14:58:52.162Z,5.73
2023-01-04T15:01:39.917Z,3.30
2023-01-04T15:04:26.566Z,4.13
2023-01-04T15:07:33.743Z,2.73
2023-01-04T15:10:23.935Z,4.93
2023-01-04T15:13:11.798Z,3.10
2023-01-04T15:15:58.557Z,3.20
2023-01-04T15:18:45.811Z,3.07
2023-01-04T15:21:36.928Z,3.93
2023-01-04T15:24:27.163Z,1.87
2023-01-04T15:27:13.691Z,1.97
2023-01-04T15:30:01.400Z,2.90
2023-01-04T15:32:48.259Z,1.53
2023-01-04T15:35:35.418Z,2.00
2023-01-04T15:38:22.019Z,9.43
2023-01-04T15:41:32.122Z,3.40
2023-01-04T15:44:18.013Z,1.43
2023-01-04T15:47:05.924Z,1.70
2023-01-04T15:49:52.466Z,3.80
2023-01-04T15:52:38.950Z,2.37
2023-01-04T15:55:26.796Z,7.27
2023-01-04T15:58:16.465Z,3.87
2023-01-04T16:01:09.144Z,2.60
2023-01-04T16:03:57.241Z,5.50
2023-01-04T16:06:43.761Z,4.13
2023-01-04T16:09:30.310Z,5.27
2023-01-04T16:12:34.366Z,2.87
2023-01-04T16:15:22.391Z,5.00
2023-01-04T16:18:09.162Z,5.07
2023-01-04T16:20:57.520Z,3.50
2023-01-04T16:23:44.052Z,4.50
2023-01-04T16:26:30.494Z,8.27
2023-01-04T16:29:17.212Z,3.77
2023-01-04T16:32:05.444Z,4.00
2023-01-04T16:34:52.226Z,2.80
2023-01-04T16:37:40.332Z,5.07
2023-01-04T16:40:26.636Z,3.13
2023-01-04T16:43:13.028Z,4.57
2023-01-04T16:46:20.184Z,4.90
2023-01-04T16:49:09.634Z,4.00
2023-01-04T16:51:55.990Z,3.93
2023-01-04T16:54:43.735Z,5.00
2023-01-04T16:57:30.257Z,5.13
2023-01-04T17:00:19.221Z,4.63
2023-01-04T17:03:05.764Z,2.83
2023-01-04T17:05:52.399Z,5.77
2023-01-04T17:08:39.031Z,5.40
2023-01-04T17:14:35.608Z,5.57
2023-01-04T17:17:22.120Z,4.27
2023-01-04T17:20:09.666Z,1.53
2023-01-04T17:22:56.355Z,5.07
2023-01-04T17:25:42.835Z,4.60
2023-01-04T17:28:31.334Z,3.33
2023-01-04T17:31:20.592Z,4.20
2023-01-04T17:34:08.903Z,6.57
2023-01-04T17:36:55.820Z,4.00
2023-01-04T17:39:42.331Z,5.63
2023-01-04T17:42:28.658Z,6.03
2023-01-04T17:45:16.575Z,3.53
2023-01-04T17:48:02.967Z,3.23
2023-01-04T17:50:49.342Z,7.77
2023-01-04T17:53:36.289Z,5.63
2023-01-04T17:56:23.551Z,4.73
2023-01-04T17:59:12.555Z,3.70
2023-01-04T18:02:00.488Z,5.77
2023-01-04T18:04:47.276Z,12.83
2023-01-04T18:07:35.185Z,6.23
2023-01-04T18:10:40.851Z,7.43
2023-01-04T18:13:28.046Z,5.10
2023-01-04T18:16:24.318Z,9.80
2023-01-04T18:19:12.971Z,10.37
2023-01-04T18:21:59.958Z,10.53
2023-01-04T18:24:46.317Z,7.47
2023-01-04T18:27:32.751Z,7.23
2023-01-04T18:30:19.211Z,9.30
2023-01-04T18:33:06.227Z,7.00
2023-01-04T18:35:53.928Z,6.17
2023-01-04T18:38:40.774Z,6.17
2023-01-04T18:41:27.969Z,8.40
2023-01-04T18:47:22.857Z,7.97
2023-01-04T18:50:10.519Z,7.17
2023-01-04T18:52:58.302Z,3.73
2023-01-04T18:55:45.090Z,13.33
2023-01-04T18:58:31.509Z,6.57
2023-01-04T19:01:19.889Z,16.40
2023-01-04T19:04:06.936Z,7.80
2023-01-04T19:06:53.178Z,8.93
2023-01-04T19:09:42.569Z,17.03
2023-01-04T19:12:29.429Z,11.60
2023-01-04T19:15:16.099Z,13.77
2023-01-04T19:18:02.718Z,12.50
2023-01-04T19:20:49.147Z,9.27
2023-01-04T19:23:37.277Z,10.07
2023-01-04T19:26:26.014Z,8.40
2023-01-04T19:29:12.640Z,4.90
2023-01-04T19:31:59.098Z,6.37
2023-01-04T19:34:45.747Z,6.53
2023-01-04T19:37:32.384Z,10.90
2023-01-04T19:40:19.109Z,6.53
2023-01-04T19:43:07.499Z,6.20
2023-01-04T19:45:54.031Z,7.13
2023-01-04T19:48:41.412Z,14.70
2023-01-04T19:51:28.594Z,11.90
2023-01-04T19:54:21.533Z,10.23
2023-01-04T19:57:11.448Z,8.33
2023-01-04T19:59:59.522Z,9.80
2023-01-04T20:02:46.030Z,8.13
2023-01-04T20:05:34.992Z,7.33
2023-01-04T20:08:21.679Z,13.30
2023-01-04T20:11:08.576Z,13.43
2023-01-04T20:13:54.982Z,8.57
2023-01-04T20:16:42.793Z,12.00
2023-01-04T20:19:29.720Z,9.30
2023-01-04T20:22:16.484Z,12.93
2023-01-04T20:25:03.067Z,10.47
2023-01-04T20:27:49.805Z,11.30
2023-01-04T20:30:36.470Z,10.33
2023-01-04T20:33:24.660Z,12.10
2023-01-04T20:36:14.514Z,13.80
2023-01-04T20:39:03.429Z,14.23
2023-01-04T20:42:03.815Z,10.90
2023-01-04T20:44:50.421Z,11.97
2023-01-04T20:47:36.997Z,11.07
2023-01-04T20:50:24.881Z,12.53
2023-01-04T20:53:13.435Z,11.30
2023-01-04T20:56:06.219Z,11.67
2023-01-04T20:58:53.376Z,8.27
2023-01-04T21:01:39.770Z,14.00
2023-01-04T21:04:27.710Z,13.80
2023-01-04T21:07:15.928Z,11.80
2023-01-04T21:10:02.538Z,8.07
2023-01-04T21:12:49.132Z,11.70
2023-01-04T21:15:37.710Z,13.67
2023-01-04T21:18:25.344Z,14.90
2023-01-04T21:21:15.848Z,9.27
2023-01-04T21:24:03.545Z,11.83
2023-01-04T21:26:50.310Z,9.17
2023-01-04T21:29:36.818Z,11.10
2023-01-04T21:32:23.296Z,11.37
2023-01-04T21:35:10.365Z,13.73
2023-01-04T21:37:56.969Z,12.50
2023-01-04T21:40:44.820Z,14.60
2023-01-04T21:43:31.477Z,11.60
2023-01-04T21:46:18.314Z,7.07
2023-01-04T21:49:06.316Z,7.93
2023-01-04T21:51:52.940Z,6.40
2023-01-04T21:54:39.994Z,4.73
2023-01-04T21:57:27.667Z,8.87
2023-01-04T22:00:14.697Z,5.83
2023-01-04T22:03:01.190Z,5.57
2023-01-04T22:05:47.645Z,9.40
2023-01-04T22:08:34.400Z,7.23
2023-01-04T22:11:21.274Z,11.93
2023-01-04T22:14:09.411Z,10.57
2023-01-04T22:16:56.097Z,14.20
2023-01-04T22:19:42.447Z,14.37
2023-01-04T22:22:30.850Z,11.93
2023-01-04T22:25:17.367Z,14.57
2023-01-04T22:28:04.117Z,14.27
2023-01-04T22:30:52.205Z,11.97
2023-01-04T22:33:39.842Z,15.40
2023-01-04T22:36:26.238Z,19.60
2023-01-04T22:39:12.828Z,11.17
2023-01-04T22:41:59.174Z,7.70
2023-01-04T22:44:45.603Z,7.87
2023-01-04T22:47:35.918Z,9.10
2023-01-04T22:50:22.737Z,3.57
2023-01-04T22:53:09.101Z,9.97
2023-01-04T22:59:02.192Z,8.70
2023-01-04T23:01:49.098Z,4.50
2023-01-04T23:04:37.315Z,5.60
2023-01-04T23:07:23.806Z,6.40
2023-01-04T23:10:10.545Z,8.87
2023-01-04T23:12:57.032Z,11.67
2023-01-04T23:15:43.365Z,12.40
2023-01-04T23:18:32.888Z,10.67
2023-01-04T23:21:20.656Z,16.77
2023-01-04T23:24:08.073Z,13.90
2023-01-04T23:26:54.430Z,13.17
2023-01-04T23:29:41.028Z,16.33
2023-01-04T23:32:27.382Z,14.00
2023-01-04T23:35:13.830Z,16.60
2023-01-04T23:38:01.565Z,16.47
2023-01-04T23:40:48.724Z,15.00
2023-01-04T23:43:36.954Z,7.20
2023-01-04T23:46:23.410Z,11.90
2023-01-04T23:49:10.119Z,10.03
2023-01-04T23:51:57.317Z,9.20
2023-01-04T23:54:45.154Z,7.87
2023-01-04T23:57:31.639Z,13.10
